createdAt,value
2019-01-08T00:00:32.509Z,11.10
2019-01-08T00:05:34.235Z,10.43
2019-01-08T00:10:35.910Z,9.53
2019-01-08T00:15:37.908Z,17.60
2019-01-08T00:20:39.673Z,13.00
2019-01-08T00:25:41.756Z,12.43
2019-01-08T00:30:43.875Z,10.60
2019-01-08T00:35:45.741Z,7.80
2019-01-08T00:40:47.591Z,8.50
2019-01-08T00:45:49.204Z,11.83
2019-01-08T00:50:50.940Z,11.83
2019-01-08T00:55:52.578Z,12.53
2019-01-08T01:00:54.262Z,13.93
2019-01-08T01:05:56.355Z,11.47
2019-01-08T01:10:58.142Z,11.50
2019-01-08T01:16:00.296Z,12.60
2019-01-08T01:21:01.988Z,9.47
2019-01-08T01:26:03.708Z,13.77
2019-01-08T01:31:05.777Z,12.67
2019-01-08T01:36:07.735Z,12.87
2019-01-08T01:41:09.698Z,17.73
2019-01-08T01:46:11.465Z,16.20
2019-01-08T01:51:13.228Z,13.00
2019-01-08T01:56:15.029Z,14.03
2019-01-08T02:01:16.832Z,19.33
2019-01-08T02:06:18.938Z,15.80
2019-01-08T02:11:21.020Z,16.73
2019-01-08T02:16:24.370Z,18.20
2019-01-08T02:21:26.086Z,13.50
2019-01-08T02:26:28.183Z,19.73
2019-01-08T02:31:30.395Z,16.47
2019-01-08T02:36:32.082Z,21.30
2019-01-08T02:41:34.138Z,18.47
2019-01-08T02:46:36.481Z,23.30
2019-01-08T02:51:38.366Z,19.17
2019-01-08T02:56:40.311Z,21.53
2019-01-08T03:01:42.445Z,27.47
2019-01-08T03:06:44.143Z,23.33
2019-01-08T03:11:45.764Z,15.33
2019-01-08T03:16:47.818Z,17.67
2019-01-08T03:21:49.451Z,21.67
2019-01-08T03:26:51.144Z,17.33
2019-01-08T03:31:52.874Z,21.87
2019-01-08T03:36:55.027Z,21.20
2019-01-08T03:41:56.726Z,23.73
2019-01-08T03:46:58.421Z,22.60
2019-01-08T03:52:00.089Z,27.73
2019-01-08T03:57:02.333Z,24.67
2019-01-08T04:02:04.048Z,20.90
2019-01-08T04:07:05.665Z,21.50
2019-01-08T04:12:07.482Z,23.43
2019-01-08T04:17:09.606Z,19.50
2019-01-08T04:22:11.273Z,20.43
2019-01-08T04:27:12.958Z,24.30
2019-01-08T04:32:14.881Z,21.27
2019-01-08T04:37:16.925Z,15.00
2019-01-08T04:42:18.691Z,14.60
2019-01-08T04:47:20.445Z,18.20
2019-01-08T04:52:22.163Z,19.00
2019-01-08T04:57:24.079Z,23.93
2019-01-08T05:02:25.838Z,20.87
2019-01-08T05:07:27.516Z,15.27
2019-01-08T05:12:29.328Z,22.40
2019-01-08T05:17:31.022Z,20.30
2019-01-08T05:22:34.757Z,15.27
2019-01-08T05:27:36.683Z,16.60
2019-01-08T05:32:39.970Z,20.13
2019-01-08T05:37:43.589Z,19.80
2019-01-08T05:42:45.400Z,16.77
2019-01-08T05:47:47.554Z,19.17
2019-01-08T05:52:49.464Z,14.40
2019-01-08T05:57:51.730Z,14.40
2019-01-08T06:02:53.742Z,13.70
2019-01-08T06:07:55.852Z,17.30
2019-01-08T06:12:58.917Z,14.10
2019-01-08T06:18:01.048Z,13.90
2019-01-08T06:23:02.665Z,15.90
2019-01-08T06:28:04.385Z,15.70
2019-01-08T06:33:06.528Z,18.47
2019-01-08T06:38:08.534Z,11.77
2019-01-08T06:43:10.550Z,12.17
2019-01-08T06:48:13.327Z,11.90
2019-01-08T06:53:15.652Z,11.90
2019-01-08T06:58:17.372Z,12.60
2019-01-08T07:03:19.384Z,9.57
2019-01-08T07:08:21.099Z,11.13
2019-01-08T07:13:23.067Z,10.40
2019-01-08T07:18:25.010Z,9.93
2019-01-08T07:23:26.865Z,7.93
2019-01-08T07:28:29.417Z,6.50
2019-01-08T07:33:31.457Z,5.90
2019-01-08T07:38:33.209Z,5.70
2019-01-08T07:43:34.885Z,4.70
2019-01-08T07:48:37.010Z,7.20
2019-01-08T07:53:38.829Z,6.20
2019-01-08T07:58:40.433Z,4.87
2019-01-08T08:03:42.673Z,5.90
2019-01-08T08:08:44.418Z,4.40
2019-01-08T08:13:47.426Z,2.33
2019-01-08T08:18:50.066Z,3.40
2019-01-08T08:23:51.866Z,4.90
2019-01-08T08:28:53.602Z,3.43
2019-01-08T08:33:55.716Z,3.10
2019-01-08T08:38:57.896Z,3.23
2019-01-08T08:43:59.654Z,3.67
2019-01-08T08:49:03.149Z,3.73
2019-01-08T08:54:05.239Z,3.20
2019-01-08T08:59:06.977Z,2.97
2019-01-08T09:04:09.129Z,3.13
2019-01-08T09:09:10.998Z,2.33
2019-01-08T09:14:12.764Z,2.70
2019-01-08T09:19:14.879Z,3.70
2019-01-08T09:24:16.642Z,3.07
2019-01-08T09:29:18.966Z,3.53
2019-01-08T09:34:21.111Z,3.33
2019-01-08T09:39:23.054Z,3.20
2019-01-08T09:44:24.921Z,3.17
2019-01-08T09:49:27.000Z,3.50
2019-01-08T09:54:29.080Z,2.40
2019-01-08T09:59:30.824Z,2.50
2019-01-08T10:04:32.934Z,3.53
2019-01-08T10:09:34.808Z,3.60
2019-01-08T10:14:36.712Z,3.60
2019-01-08T10:19:38.513Z,4.03
2019-01-08T10:24:40.528Z,2.93
2019-01-08T10:29:42.250Z,4.03
2019-01-08T10:34:44.296Z,3.30
2019-01-08T10:39:47.334Z,3.83
2019-01-08T10:44:49.151Z,3.13
2019-01-08T10:49:50.910Z,3.53
2019-01-08T10:54:54.064Z,2.70
2019-01-08T10:59:55.954Z,2.80
2019-01-08T11:04:57.831Z,2.77
2019-01-08T11:09:59.856Z,2.13
2019-01-08T11:15:02.310Z,2.40
2019-01-08T11:20:07.919Z,2.50
2019-01-08T11:25:09.773Z,2.13
2019-01-08T11:30:11.607Z,1.43
2019-01-08T11:35:13.766Z,3.17
2019-01-08T11:40:17.444Z,2.93
2019-01-08T11:45:19.364Z,2.30
2019-01-08T11:50:20.981Z,1.67
2019-01-08T11:55:22.708Z,2.23
2019-01-08T12:00:24.364Z,2.40
2019-01-08T12:05:26.499Z,1.20
2019-01-08T12:10:28.152Z,2.10
2019-01-08T12:15:30.121Z,2.27
2019-01-08T12:20:31.803Z,1.80
2019-01-08T12:25:33.684Z,2.00
2019-01-08T12:30:35.476Z,1.50
2019-01-08T12:35:37.639Z,2.00
2019-01-08T12:40:40.764Z,1.90
2019-01-08T12:45:42.701Z,1.13
2019-01-08T12:50:44.584Z,1.07
2019-01-08T12:55:46.384Z,1.73
2019-01-08T13:00:48.504Z,1.50
2019-01-08T13:05:50.776Z,1.90
2019-01-08T13:10:52.566Z,1.70
2019-01-08T13:15:54.411Z,1.87
2019-01-08T13:20:56.196Z,1.90
2019-01-08T13:25:57.949Z,1.20
2019-01-08T13:30:59.702Z,1.60
2019-01-08T13:36:01.820Z,1.30
2019-01-08T13:41:03.786Z,2.20
2019-01-08T13:46:05.521Z,1.53
2019-01-08T13:51:07.149Z,1.30
2019-01-08T13:56:09.001Z,1.17
2019-01-08T14:01:11.986Z,2.13
2019-01-08T14:06:14.148Z,2.00
2019-01-08T14:11:15.826Z,2.07
2019-01-08T14:16:17.584Z,2.00
2019-01-08T14:21:19.336Z,2.30
2019-01-08T14:26:21.096Z,1.53
2019-01-08T14:31:22.846Z,1.70
2019-01-08T14:36:25.529Z,2.60
2019-01-08T14:41:27.239Z,1.90
2019-01-08T14:46:29.350Z,1.70
2019-01-08T14:51:31.085Z,1.77
2019-01-08T14:56:32.981Z,1.90
2019-01-08T15:01:34.721Z,1.50
2019-01-08T15:06:37.022Z,2.67
2019-01-08T15:11:38.781Z,2.80
2019-01-08T15:16:42.656Z,2.23
2019-01-08T15:21:46.094Z,2.37
2019-01-08T15:26:47.710Z,2.30
2019-01-08T15:31:53.677Z,3.73
2019-01-08T15:36:55.642Z,3.40
2019-01-08T15:41:59.055Z,3.23
2019-01-08T15:47:02.181Z,2.37
2019-01-08T15:52:03.995Z,3.63
2019-01-08T15:57:07.604Z,2.90
2019-01-08T16:02:10.347Z,2.70
2019-01-08T16:07:12.305Z,2.40
2019-01-08T16:12:14.373Z,3.13
2019-01-08T16:17:17.103Z,2.70
2019-01-08T16:22:19.047Z,2.53
2019-01-08T16:27:20.774Z,3.07
2019-01-08T16:32:22.528Z,2.30
2019-01-08T16:37:24.462Z,2.83
2019-01-08T16:42:27.990Z,2.80
2019-01-08T16:47:30.116Z,2.90
2019-01-08T16:52:31.797Z,2.50
2019-01-08T16:57:33.719Z,2.10
2019-01-08T17:02:35.423Z,2.10
2019-01-08T17:07:37.243Z,1.73
2019-01-08T17:12:39.108Z,2.13
2019-01-08T17:17:40.744Z,2.03
2019-01-08T17:22:42.521Z,1.93
2019-01-08T17:27:44.138Z,2.37
2019-01-08T17:32:45.818Z,3.00
2019-01-08T17:37:47.559Z,2.40
2019-01-08T17:42:49.231Z,2.77
2019-01-08T17:47:50.906Z,1.80
2019-01-08T17:52:52.812Z,2.23
2019-01-08T17:58:23.910Z,2.90
2019-01-08T18:03:25.614Z,2.60
2019-01-08T18:08:27.260Z,2.33
2019-01-08T18:13:28.941Z,2.17
2019-01-08T18:18:30.590Z,2.77
2019-01-08T18:23:32.292Z,2.73
2019-01-08T18:28:34.006Z,1.90
2019-01-08T18:33:35.643Z,1.70
2019-01-08T18:38:37.335Z,3.30
2019-01-08T18:43:39.022Z,2.80
2019-01-08T18:48:40.748Z,2.37
2019-01-08T18:53:42.408Z,2.60
2019-01-08T18:58:44.087Z,1.83
2019-01-08T19:03:45.738Z,3.77
2019-01-08T19:09:26.747Z,2.73
2019-01-08T19:14:31.203Z,4.23
2019-01-08T19:19:32.953Z,2.90
2019-01-08T19:24:34.705Z,4.40
2019-01-08T19:29:36.472Z,3.10
2019-01-08T19:34:38.228Z,3.00
2019-01-08T19:39:39.997Z,4.93
2019-01-08T19:44:43.742Z,9.50
2019-01-08T19:49:47.035Z,4.10
2019-01-08T19:54:48.910Z,4.27
2019-01-08T19:59:50.630Z,5.80
2019-01-08T20:04:52.258Z,4.50
2019-01-08T20:09:53.942Z,4.40
2019-01-08T20:14:55.658Z,3.80
2019-01-08T20:19:57.421Z,3.40
2019-01-08T20:24:59.171Z,5.30
2019-01-08T20:30:00.940Z,2.97
2019-01-08T20:35:02.692Z,3.03
2019-01-08T20:40:04.853Z,5.43
2019-01-08T20:45:07.782Z,5.00
2019-01-08T20:50:09.862Z,4.17
2019-01-08T20:55:11.482Z,4.83
2019-01-08T21:00:13.668Z,4.10
2019-01-08T21:05:15.294Z,5.10
2019-01-08T21:10:20.279Z,4.43
2019-01-08T21:15:22.219Z,3.60
2019-01-08T21:20:23.975Z,4.90
2019-01-08T21:25:26.070Z,3.53
2019-01-08T21:30:27.830Z,5.20
2019-01-08T21:35:29.598Z,3.40
2019-01-08T21:40:31.361Z,4.00
2019-01-08T21:45:33.181Z,6.43
2019-01-08T21:50:34.958Z,4.57
2019-01-08T21:55:36.764Z,5.63
2019-01-08T22:00:38.512Z,4.10
2019-01-08T22:05:40.288Z,4.00
2019-01-08T22:10:42.015Z,3.20
2019-01-08T22:15:43.800Z,4.70
2019-01-08T22:20:45.584Z,4.03
2019-01-08T22:25:47.339Z,4.37
2019-01-08T22:30:49.126Z,3.03
2019-01-08T22:35:52.848Z,4.67
2019-01-08T22:40:54.574Z,2.93
2019-01-08T22:45:57.712Z,4.33
2019-01-08T22:50:59.826Z,3.50
2019-01-08T22:56:02.093Z,3.30
2019-01-08T23:01:05.930Z,2.10
2019-01-08T23:06:07.915Z,2.70
2019-01-08T23:11:09.687Z,3.03
2019-01-08T23:16:11.467Z,3.50
2019-01-08T23:21:13.226Z,2.70
2019-01-08T23:26:15.001Z,3.67
2019-01-08T23:31:16.755Z,2.27
2019-01-08T23:36:18.495Z,3.03
2019-01-08T23:41:20.261Z,3.80
2019-01-08T23:46:26.150Z,4.00
2019-01-08T23:51:27.939Z,3.20
2019-01-08T23:56:29.888Z,2.60
